createdAt,value
2018-12-22T00:02:10.861Z,2.70
2018-12-22T00:04:37.403Z,2.30
2018-12-22T00:07:03.908Z,2.70
2018-12-22T00:09:30.403Z,2.80
2018-12-22T00:11:56.842Z,2.70
2018-12-22T00:14:23.340Z,2.70
2018-12-22T00:16:49.900Z,2.50
2018-12-22T00:19:16.514Z,2.30
2018-12-22T00:21:42.995Z,2.30
2018-12-22T00:24:09.573Z,2.40
2018-12-22T00:26:36.138Z,2.00
2018-12-22T00:29:02.612Z,2.20
2018-12-22T00:31:29.090Z,2.20
2018-12-22T00:33:55.649Z,2.20
2018-12-22T00:36:22.124Z,2.10
2018-12-22T00:38:52.269Z,1.30
2018-12-22T00:41:18.789Z,1.40
2018-12-22T00:43:45.292Z,1.80
2018-12-22T00:46:12.752Z,2.30
2018-12-22T00:48:39.311Z,2.10
2018-12-22T00:51:05.793Z,2.00
2018-12-22T00:53:32.355Z,2.10
2018-12-22T00:55:58.916Z,2.00
2018-12-22T00:58:30.688Z,1.80
2018-12-22T01:00:57.711Z,1.90
2018-12-22T01:03:24.378Z,2.20
2018-12-22T01:05:51.059Z,2.50
2018-12-22T01:08:17.618Z,2.30
2018-12-22T01:10:44.902Z,2.20
2018-12-22T01:13:11.791Z,2.20
2018-12-22T01:15:38.295Z,2.40
2018-12-22T01:18:04.737Z,2.20
2018-12-22T01:20:31.355Z,1.90
2018-12-22T01:22:58.116Z,1.90
2018-12-22T01:25:24.584Z,1.80
2018-12-22T01:27:51.033Z,1.70
2018-12-22T01:30:17.623Z,1.70
2018-12-22T01:32:44.715Z,1.80
2018-12-22T01:35:11.166Z,1.80
2018-12-22T01:37:37.717Z,1.90
2018-12-22T01:40:04.226Z,1.90
2018-12-22T01:42:30.765Z,2.00
2018-12-22T01:44:57.262Z,1.60
2018-12-22T01:47:23.773Z,1.80
2018-12-22T01:49:50.274Z,1.60
2018-12-22T01:52:16.741Z,1.10
2018-12-22T01:54:43.198Z,1.40
2018-12-22T01:57:09.702Z,1.60
2018-12-22T01:59:36.232Z,1.60
2018-12-22T02:02:02.727Z,1.90
2018-12-22T02:04:29.179Z,2.00
2018-12-22T02:06:55.643Z,1.90
2018-12-22T02:09:22.173Z,1.90
2018-12-22T02:11:48.614Z,1.80
2018-12-22T02:14:15.104Z,1.60
2018-12-22T02:16:41.539Z,1.50
2018-12-22T02:19:08.022Z,1.90
2018-12-22T02:21:34.482Z,1.90
2018-12-22T02:24:01.570Z,2.00
2018-12-22T02:26:28.079Z,1.90
2018-12-22T02:28:56.853Z,2.00
2018-12-22T02:31:23.023Z,1.90
2018-12-22T02:33:49.453Z,2.20
2018-12-22T02:36:15.971Z,2.30
2018-12-22T02:38:42.450Z,2.00
2018-12-22T02:41:09.806Z,1.70
2018-12-22T02:43:36.409Z,1.80
2018-12-22T02:46:02.862Z,2.10
2018-12-22T02:48:29.317Z,2.20
2018-12-22T02:50:55.765Z,2.20
2018-12-22T02:53:22.273Z,2.30
2018-12-22T02:55:48.760Z,1.60
2018-12-22T02:58:15.405Z,1.60
2018-12-22T03:00:41.953Z,1.40
2018-12-22T03:03:08.464Z,1.40
2018-12-22T03:05:35.006Z,1.40
2018-12-22T03:08:01.463Z,1.70
2018-12-22T03:10:27.886Z,2.00
2018-12-22T03:12:54.394Z,1.60
2018-12-22T03:15:21.173Z,1.70
2018-12-22T03:17:47.701Z,1.80
2018-12-22T03:20:14.437Z,1.50
2018-12-22T03:22:43.004Z,1.60
2018-12-22T03:25:09.455Z,1.60
2018-12-22T03:27:35.984Z,2.00
2018-12-22T03:30:02.473Z,1.70
2018-12-22T03:32:29.155Z,1.40
2018-12-22T03:34:55.827Z,1.40
2018-12-22T03:37:22.612Z,1.70
2018-12-22T03:39:49.119Z,2.20
2018-12-22T03:42:15.621Z,2.50
2018-12-22T03:44:42.742Z,2.90
2018-12-22T03:47:09.273Z,3.00
2018-12-22T03:49:35.750Z,3.00
2018-12-22T03:52:02.209Z,3.30
2018-12-22T03:54:28.743Z,3.20
2018-12-22T03:56:55.410Z,2.60
2018-12-22T03:59:24.985Z,2.60
2018-12-22T04:01:50.426Z,2.60
2018-12-22T04:04:16.904Z,2.40
2018-12-22T04:06:43.507Z,2.10
2018-12-22T04:09:09.951Z,2.20
2018-12-22T04:11:36.475Z,2.20
2018-12-22T04:14:02.950Z,2.00
2018-12-22T04:16:29.445Z,1.90
2018-12-22T04:18:55.892Z,2.20
2018-12-22T04:21:22.946Z,2.20
2018-12-22T04:23:49.397Z,2.20
2018-12-22T04:26:16.622Z,2.30
2018-12-22T04:28:43.680Z,2.00
2018-12-22T04:31:10.366Z,2.00
2018-12-22T04:33:37.400Z,2.10
2018-12-22T04:36:04.431Z,2.40
2018-12-22T04:38:31.507Z,2.70
2018-12-22T04:40:57.975Z,2.60
2018-12-22T04:43:24.967Z,2.60
2018-12-22T04:45:51.411Z,2.70
2018-12-22T04:48:17.923Z,2.60
2018-12-22T04:50:44.361Z,2.90
2018-12-22T04:53:10.807Z,2.60
2018-12-22T04:55:38.046Z,2.50
2018-12-22T04:58:04.864Z,2.60
2018-12-22T05:00:31.866Z,2.30
2018-12-22T05:02:58.547Z,2.60
2018-12-22T05:05:26.777Z,2.80
2018-12-22T05:07:54.939Z,3.00
2018-12-22T05:10:22.026Z,2.70
2018-12-22T05:12:49.181Z,2.50
2018-12-22T05:15:16.412Z,2.40
2018-12-22T05:17:44.930Z,2.60
2018-12-22T05:20:12.914Z,2.40
2018-12-22T05:22:39.398Z,2.50
2018-12-22T05:25:05.864Z,1.90
2018-12-22T05:27:33.675Z,1.80
2018-12-22T05:30:01.783Z,1.60
2018-12-22T05:32:28.252Z,1.70
2018-12-22T05:34:55.623Z,1.90
2018-12-22T05:37:23.369Z,2.10
2018-12-22T05:39:50.829Z,2.30
2018-12-22T05:42:18.089Z,2.40
2018-12-22T05:44:45.348Z,2.30
2018-12-22T05:47:12.000Z,2.50
2018-12-22T05:49:38.558Z,2.80
2018-12-22T05:52:05.874Z,2.80
2018-12-22T05:54:33.107Z,2.50
2018-12-22T05:57:00.412Z,2.50
2018-12-22T05:59:26.902Z,2.10
2018-12-22T06:01:54.143Z,1.70
2018-12-22T06:04:20.577Z,1.90
2018-12-22T06:06:47.137Z,2.20
2018-12-22T06:09:14.810Z,2.40
2018-12-22T06:11:41.813Z,2.50
2018-12-22T06:14:08.405Z,2.60
2018-12-22T06:16:36.119Z,2.70
2018-12-22T06:19:02.688Z,2.70
2018-12-22T06:21:29.404Z,2.60
2018-12-22T06:23:55.866Z,2.60
2018-12-22T06:26:24.038Z,2.40
2018-12-22T06:28:51.337Z,2.50
2018-12-22T06:31:18.097Z,2.20
2018-12-22T06:33:46.199Z,1.90
2018-12-22T06:36:12.835Z,2.10
2018-12-22T06:38:40.439Z,2.00
2018-12-22T06:41:07.768Z,2.10
2018-12-22T06:43:35.831Z,2.20
2018-12-22T06:46:02.804Z,2.40
2018-12-22T06:51:02.300Z,2.10
2018-12-22T06:53:29.730Z,1.80
2018-12-22T06:55:56.803Z,1.60
2018-12-22T06:58:23.287Z,1.80
2018-12-22T07:00:51.310Z,1.90
2018-12-22T07:03:18.447Z,1.60
2018-12-22T07:05:45.689Z,1.70
2018-12-22T07:08:12.160Z,1.60
2018-12-22T07:10:39.418Z,2.00
2018-12-22T07:13:06.039Z,1.80
2018-12-22T07:15:32.654Z,1.90
2018-12-22T07:17:59.838Z,2.00
2018-12-22T07:20:27.210Z,1.70
2018-12-22T07:22:53.683Z,1.80
2018-12-22T07:25:20.141Z,1.80
2018-12-22T07:27:46.589Z,2.30
2018-12-22T07:30:13.265Z,2.10
2018-12-22T07:32:39.706Z,2.40
2018-12-22T07:35:06.382Z,2.40
2018-12-22T07:37:33.726Z,2.20
2018-12-22T07:40:00.304Z,2.30
2018-12-22T07:42:28.639Z,2.50
2018-12-22T07:44:55.185Z,2.70
2018-12-22T07:47:23.415Z,2.90
2018-12-22T07:49:50.347Z,3.10
2018-12-22T07:52:17.088Z,3.20
2018-12-22T07:54:44.167Z,2.80
2018-12-22T07:57:10.752Z,3.00
2018-12-22T07:59:38.517Z,3.40
2018-12-22T08:02:05.034Z,3.30
2018-12-22T08:04:31.808Z,3.60
2018-12-22T08:06:58.298Z,3.70
2018-12-22T08:09:24.985Z,3.80
2018-12-22T08:11:51.424Z,3.60
2018-12-22T08:14:17.884Z,3.80
2018-12-22T08:16:45.209Z,3.70
2018-12-22T08:19:12.209Z,3.50
2018-12-22T08:21:39.330Z,3.60
2018-12-22T08:24:06.983Z,3.60
2018-12-22T08:26:34.837Z,3.70
2018-12-22T08:29:02.211Z,3.80
2018-12-22T08:31:30.211Z,4.00
2018-12-22T08:33:57.411Z,3.90
2018-12-22T08:36:24.776Z,4.00
2018-12-22T08:38:51.878Z,4.20
2018-12-22T08:41:18.350Z,4.30
2018-12-22T08:43:44.858Z,4.20
2018-12-22T08:46:11.668Z,4.00
2018-12-22T08:48:38.889Z,3.40
2018-12-22T08:51:05.335Z,3.40
2018-12-22T08:53:33.584Z,3.80
2018-12-22T08:56:00.710Z,3.80
2018-12-22T08:58:27.489Z,3.50
2018-12-22T09:00:56.072Z,3.80
2018-12-22T09:03:22.562Z,3.80
2018-12-22T09:05:51.127Z,3.90
2018-12-22T09:08:17.597Z,3.80
2018-12-22T09:10:45.042Z,3.80
2018-12-22T09:13:20.663Z,4.20
2018-12-22T09:15:41.091Z,4.60
2018-12-22T09:18:07.941Z,4.50
2018-12-22T09:20:35.306Z,4.90
2018-12-22T09:23:02.048Z,5.00
2018-12-22T09:25:29.456Z,4.70
2018-12-22T09:27:56.726Z,4.60
2018-12-22T09:30:23.765Z,5.10
2018-12-22T09:32:51.166Z,5.30
2018-12-22T09:35:18.682Z,5.60
2018-12-22T09:37:45.279Z,5.90
2018-12-22T09:40:12.537Z,6.00
2018-12-22T09:42:39.324Z,6.10
2018-12-22T09:45:05.753Z,6.20
2018-12-22T09:47:33.231Z,6.20
2018-12-22T09:50:00.346Z,6.00
2018-12-22T09:52:27.702Z,6.10
2018-12-22T09:54:56.217Z,6.20
2018-12-22T09:57:22.925Z,6.30
2018-12-22T09:59:50.557Z,6.30
2018-12-22T10:02:17.027Z,6.40
2018-12-22T10:04:43.982Z,6.40
2018-12-22T10:07:10.507Z,6.40
2018-12-22T10:09:37.507Z,6.70
2018-12-22T10:12:04.635Z,6.80
2018-12-22T10:14:31.401Z,6.90
2018-12-22T10:16:58.706Z,6.90
2018-12-22T10:19:25.378Z,7.10
2018-12-22T10:21:52.516Z,7.40
2018-12-22T10:24:19.733Z,7.60
2018-12-22T10:26:46.366Z,7.80
2018-12-22T10:29:13.707Z,7.60
2018-12-22T10:31:40.457Z,7.90
2018-12-22T10:34:07.046Z,8.30
2018-12-22T10:36:34.279Z,8.50
2018-12-22T10:39:00.755Z,8.80
2018-12-22T10:41:27.255Z,8.90
2018-12-22T10:43:53.799Z,9.00
2018-12-22T10:46:21.960Z,9.00
2018-12-22T10:48:48.898Z,9.00
2018-12-22T10:51:24.285Z,9.10
2018-12-22T10:53:45.937Z,8.70
2018-12-22T10:56:14.248Z,8.60
2018-12-22T10:58:42.082Z,8.40
2018-12-22T11:01:08.530Z,8.50
2018-12-22T11:03:35.627Z,8.80
2018-12-22T11:06:02.268Z,9.00
2018-12-22T11:08:30.492Z,8.80
2018-12-22T11:10:58.050Z,9.00
2018-12-22T11:13:25.799Z,9.10
2018-12-22T11:15:52.555Z,8.80
2018-12-22T11:18:21.379Z,8.20
2018-12-22T11:20:49.156Z,8.20
2018-12-22T11:23:20.403Z,8.40
2018-12-22T11:25:45.128Z,8.90
2018-12-22T11:28:11.629Z,9.20
2018-12-22T11:30:38.110Z,9.60
2018-12-22T11:33:05.295Z,9.30
2018-12-22T11:35:32.123Z,9.10
2018-12-22T11:37:58.594Z,9.30
2018-12-22T11:40:25.767Z,9.50
2018-12-22T11:42:52.220Z,9.70
2018-12-22T11:45:19.754Z,9.40
2018-12-22T11:47:46.837Z,9.30
2018-12-22T11:50:14.735Z,9.60
2018-12-22T11:52:41.182Z,9.80
2018-12-22T11:55:08.414Z,9.80
2018-12-22T11:57:35.932Z,9.60
2018-12-22T12:00:02.563Z,9.50
2018-12-22T12:02:29.293Z,8.90
2018-12-22T12:04:55.848Z,9.10
2018-12-22T12:07:22.506Z,9.40
2018-12-22T12:09:49.584Z,9.30
2018-12-22T12:12:16.807Z,9.00
2018-12-22T12:14:43.261Z,9.10
2018-12-22T12:17:10.243Z,8.50
2018-12-22T12:19:37.132Z,8.70
2018-12-22T12:22:03.633Z,8.60
2018-12-22T12:24:31.683Z,8.90
2018-12-22T12:26:58.471Z,9.20
2018-12-22T12:29:25.736Z,9.30
2018-12-22T12:31:52.554Z,9.40
2018-12-22T12:34:19.519Z,9.40
2018-12-22T12:36:46.526Z,9.80
2018-12-22T12:39:13.003Z,10.10
2018-12-22T12:41:41.102Z,10.20
2018-12-22T12:44:07.909Z,10.30
2018-12-22T12:46:35.574Z,10.50
2018-12-22T12:49:02.022Z,10.50
2018-12-22T12:51:28.492Z,10.30
2018-12-22T12:53:54.958Z,10.40
2018-12-22T12:56:23.762Z,11.00
2018-12-22T12:58:51.046Z,11.10
2018-12-22T13:01:18.091Z,10.90
2018-12-22T13:03:46.083Z,10.80
2018-12-22T13:06:13.180Z,11.10
2018-12-22T13:08:40.306Z,10.90
2018-12-22T13:11:07.317Z,10.90
2018-12-22T13:13:34.636Z,11.20
2018-12-22T13:16:01.921Z,11.60
2018-12-22T13:18:28.969Z,11.60
2018-12-22T13:20:55.436Z,11.60
2018-12-22T13:23:24.378Z,11.70
2018-12-22T13:25:51.889Z,11.80
2018-12-22T13:28:19.874Z,11.90
2018-12-22T13:30:47.243Z,11.70
2018-12-22T13:33:14.290Z,11.80
2018-12-22T13:35:42.266Z,11.60
2018-12-22T13:38:09.008Z,11.40
2018-12-22T13:40:36.495Z,11.00
2018-12-22T13:43:03.697Z,11.40
2018-12-22T13:45:31.173Z,11.40
2018-12-22T13:47:58.148Z,11.40
2018-12-22T13:50:26.134Z,11.30
2018-12-22T13:52:53.799Z,11.20
2018-12-22T13:55:20.248Z,11.20
2018-12-22T13:57:47.575Z,11.10
2018-12-22T14:00:14.290Z,11.10
2018-12-22T14:02:42.290Z,11.10
2018-12-22T14:05:08.790Z,11.00
2018-12-22T14:07:35.301Z,10.80
2018-12-22T14:10:01.751Z,10.00
2018-12-22T14:12:28.393Z,10.10
2018-12-22T14:14:55.583Z,10.00
2018-12-22T14:17:22.936Z,9.60
2018-12-22T14:19:51.402Z,9.60
2018-12-22T14:22:17.970Z,9.90
2018-12-22T14:24:44.944Z,10.10
2018-12-22T14:27:12.329Z,9.80
2018-12-22T14:29:39.025Z,9.50
2018-12-22T14:32:06.815Z,9.70
2018-12-22T14:34:34.334Z,9.40
2018-12-22T14:37:00.957Z,9.40
2018-12-22T14:39:27.401Z,9.10
2018-12-22T14:41:55.178Z,9.10
2018-12-22T14:44:23.282Z,9.20
2018-12-22T14:46:52.230Z,9.40
2018-12-22T14:49:19.205Z,9.30
2018-12-22T14:51:46.623Z,9.10
2018-12-22T14:54:13.073Z,8.90
2018-12-22T14:56:39.556Z,9.10
2018-12-22T14:59:07.573Z,9.10
2018-12-22T15:01:34.327Z,8.70
2018-12-22T15:04:01.623Z,8.60
2018-12-22T15:06:28.771Z,8.40
2018-12-22T15:08:55.580Z,8.00
2018-12-22T15:11:22.587Z,8.00
2018-12-22T15:13:49.075Z,7.60
2018-12-22T15:16:15.786Z,7.80
2018-12-22T15:18:42.813Z,8.00
2018-12-22T15:21:09.650Z,7.60
2018-12-22T15:23:36.782Z,7.50
2018-12-22T15:26:03.849Z,7.40
2018-12-22T15:28:31.588Z,7.20
2018-12-22T15:30:58.057Z,7.00
2018-12-22T15:33:26.124Z,6.90
2018-12-22T15:35:57.665Z,6.30
2018-12-22T15:38:24.463Z,6.50
2018-12-22T15:40:52.839Z,6.60
2018-12-22T15:43:20.881Z,6.50
2018-12-22T15:45:47.364Z,6.20
2018-12-22T15:48:13.821Z,6.20
2018-12-22T15:50:41.122Z,6.00
2018-12-22T15:53:07.646Z,6.10
2018-12-22T15:55:34.154Z,6.20
2018-12-22T15:58:00.667Z,6.10
2018-12-22T16:00:28.036Z,6.00
2018-12-22T16:02:54.543Z,6.10
2018-12-22T16:05:21.631Z,5.70
2018-12-22T16:07:48.793Z,6.00
2018-12-22T16:10:16.368Z,6.00
2018-12-22T16:12:42.936Z,5.90
2018-12-22T16:15:10.186Z,5.30
2018-12-22T16:17:38.190Z,5.30
2018-12-22T16:20:04.691Z,5.50
2018-12-22T16:22:32.706Z,5.60
2018-12-22T16:25:01.503Z,5.60
2018-12-22T16:27:28.199Z,5.20
2018-12-22T16:29:55.264Z,5.40
2018-12-22T16:32:21.823Z,5.50
2018-12-22T16:34:49.932Z,5.50
2018-12-22T16:37:16.652Z,5.10
2018-12-22T16:39:43.135Z,5.30
2018-12-22T16:42:10.167Z,5.10
2018-12-22T16:44:36.794Z,4.90
2018-12-22T16:47:03.538Z,5.20
2018-12-22T16:49:30.731Z,5.40
2018-12-22T16:51:58.127Z,5.30
2018-12-22T16:54:24.687Z,5.40
2018-12-22T16:56:51.268Z,5.30
2018-12-22T16:59:18.747Z,5.30
2018-12-22T17:01:46.342Z,4.80
2018-12-22T17:04:12.822Z,4.70
2018-12-22T17:06:40.818Z,4.20
2018-12-22T17:09:08.346Z,4.50
2018-12-22T17:11:35.133Z,4.80
2018-12-22T17:14:01.603Z,4.70
2018-12-22T17:16:28.076Z,4.50
2018-12-22T17:18:54.617Z,4.10
2018-12-22T17:21:22.223Z,3.80
2018-12-22T17:23:48.990Z,4.30
2018-12-22T17:26:16.470Z,4.40
2018-12-22T17:28:43.499Z,4.20
2018-12-22T17:31:10.088Z,4.00
2018-12-22T17:33:37.054Z,4.20
2018-12-22T17:36:04.077Z,4.40
2018-12-22T17:38:31.308Z,4.10
2018-12-22T17:40:58.529Z,4.00
2018-12-22T17:45:56.716Z,3.50
2018-12-22T17:48:23.874Z,3.30
2018-12-22T17:50:50.558Z,3.50
2018-12-22T17:53:17.767Z,3.50
2018-12-22T17:55:44.628Z,3.60
2018-12-22T17:58:11.139Z,3.90
2018-12-22T18:00:37.834Z,3.50
2018-12-22T18:03:05.941Z,3.80
2018-12-22T18:05:33.830Z,3.80
2018-12-22T18:08:02.379Z,4.00
2018-12-22T18:10:29.092Z,4.30
2018-12-22T18:12:57.256Z,4.30
2018-12-22T18:15:24.488Z,4.30
2018-12-22T18:17:51.575Z,4.30
2018-12-22T18:20:19.515Z,4.40
2018-12-22T18:22:46.300Z,4.80
2018-12-22T18:25:13.026Z,4.60
2018-12-22T18:27:40.377Z,4.50
2018-12-22T18:30:07.868Z,4.40
2018-12-22T18:32:34.536Z,4.20
2018-12-22T18:35:02.116Z,4.50
2018-12-22T18:37:28.633Z,4.30
2018-12-22T18:39:55.312Z,4.10
2018-12-22T18:42:22.028Z,4.20
2018-12-22T18:44:48.805Z,4.20
2018-12-22T18:47:15.377Z,4.30
2018-12-22T18:49:43.284Z,4.50
2018-12-22T18:52:09.721Z,4.50
2018-12-22T18:54:36.460Z,4.30
2018-12-22T18:57:03.625Z,4.50
2018-12-22T18:59:33.181Z,4.20
2018-12-22T19:01:59.914Z,4.10
2018-12-22T19:04:27.450Z,4.20
2018-12-22T19:06:53.948Z,4.30
2018-12-22T19:09:21.294Z,3.70
2018-12-22T19:11:48.084Z,3.90
2018-12-22T19:14:15.448Z,4.00
2018-12-22T19:16:42.138Z,4.30
2018-12-22T19:19:12.078Z,4.30
2018-12-22T19:21:38.656Z,4.00
2018-12-22T19:24:05.166Z,4.20
2018-12-22T19:26:33.112Z,4.30
2018-12-22T19:28:59.676Z,4.10
2018-12-22T19:31:26.151Z,3.70
2018-12-22T19:33:53.569Z,3.80
2018-12-22T19:36:20.781Z,3.70
2018-12-22T19:38:49.112Z,3.60
2018-12-22T19:41:15.659Z,3.80
2018-12-22T19:43:42.789Z,3.90
2018-12-22T19:46:10.053Z,3.80
2018-12-22T19:48:36.667Z,4.10
2018-12-22T19:51:03.930Z,4.10
2018-12-22T19:53:33.379Z,3.80
2018-12-22T19:56:01.189Z,3.90
2018-12-22T19:58:28.218Z,3.90
2018-12-22T20:00:55.458Z,3.80
2018-12-22T20:03:22.680Z,3.70
2018-12-22T20:05:49.814Z,3.70
2018-12-22T20:08:16.579Z,3.90
2018-12-22T20:10:45.065Z,4.20
2018-12-22T20:13:12.746Z,4.20
2018-12-22T20:15:40.020Z,4.30
2018-12-22T20:18:06.699Z,4.50
2018-12-22T20:20:34.099Z,4.60
2018-12-22T20:23:01.137Z,4.80
2018-12-22T20:25:27.718Z,4.90
2018-12-22T20:27:54.881Z,4.70
2018-12-22T20:30:22.930Z,4.80
2018-12-22T20:32:49.715Z,5.10
2018-12-22T20:35:16.220Z,5.20
2018-12-22T20:37:43.093Z,5.20
2018-12-22T20:40:10.223Z,5.00
2018-12-22T20:42:37.432Z,5.20
2018-12-22T20:45:04.088Z,5.30
2018-12-22T20:47:30.972Z,5.40
2018-12-22T20:49:57.820Z,5.50
2018-12-22T20:52:25.135Z,5.50
2018-12-22T20:54:52.353Z,5.60
2018-12-22T20:57:19.851Z,5.70
2018-12-22T20:59:46.645Z,5.50
2018-12-22T21:02:13.278Z,5.60
2018-12-22T21:04:40.411Z,5.50
2018-12-22T21:07:08.540Z,5.60
2018-12-22T21:09:35.649Z,5.80
2018-12-22T21:12:03.631Z,5.60
2018-12-22T21:14:30.585Z,5.60
2018-12-22T21:16:57.868Z,5.70
2018-12-22T21:19:24.458Z,6.00
2018-12-22T21:21:51.615Z,6.10
2018-12-22T21:24:18.765Z,6.00
2018-12-22T21:26:45.772Z,6.00
2018-12-22T21:29:12.265Z,6.00
2018-12-22T21:31:41.771Z,6.10
2018-12-22T21:34:08.258Z,6.10
2018-12-22T21:36:34.717Z,6.00
2018-12-22T21:39:02.023Z,6.10
2018-12-22T21:41:30.137Z,6.20
2018-12-22T21:43:56.908Z,6.30
2018-12-22T21:46:23.519Z,6.20
2018-12-22T21:48:50.020Z,6.10
2018-12-22T21:51:17.015Z,6.20
2018-12-22T21:53:43.530Z,6.10
2018-12-22T21:56:10.523Z,6.30
2018-12-22T21:58:38.241Z,6.40
2018-12-22T22:01:04.671Z,6.30
2018-12-22T22:03:31.305Z,6.20
2018-12-22T22:05:58.161Z,6.20
2018-12-22T22:08:25.289Z,6.20
2018-12-22T22:10:53.033Z,6.10
2018-12-22T22:13:22.967Z,6.10
2018-12-22T22:15:50.110Z,6.20
2018-12-22T22:18:16.844Z,6.10
2018-12-22T22:20:43.419Z,5.90
2018-12-22T22:23:18.832Z,5.90
2018-12-22T22:25:42.003Z,5.50
2018-12-22T22:28:08.540Z,5.50
2018-12-22T22:30:35.037Z,5.40
2018-12-22T22:33:02.435Z,5.20
2018-12-22T22:35:29.652Z,5.50
2018-12-22T22:37:56.263Z,5.80
2018-12-22T22:40:24.250Z,5.90
2018-12-22T22:42:51.182Z,5.80
2018-12-22T22:45:17.686Z,5.80
2018-12-22T22:47:44.349Z,5.80
2018-12-22T22:50:10.820Z,5.80
2018-12-22T22:52:37.585Z,5.70
2018-12-22T22:55:04.139Z,5.80
2018-12-22T22:57:31.363Z,5.70
2018-12-22T22:59:58.622Z,5.80
2018-12-22T23:02:25.497Z,5.50
2018-12-22T23:04:54.538Z,5.40
2018-12-22T23:07:22.085Z,5.40
2018-12-22T23:09:49.993Z,5.50
2018-12-22T23:12:16.791Z,5.40
2018-12-22T23:14:44.115Z,5.40
2018-12-22T23:17:10.623Z,5.40
2018-12-22T23:19:38.299Z,5.20
2018-12-22T23:22:04.791Z,5.20
2018-12-22T23:24:31.909Z,5.00
2018-12-22T23:26:59.155Z,4.90
2018-12-22T23:29:25.908Z,4.90
2018-12-22T23:31:53.273Z,4.80
2018-12-22T23:34:20.307Z,4.60
2018-12-22T23:36:48.404Z,4.50
2018-12-22T23:39:14.910Z,4.60
2018-12-22T23:41:42.318Z,4.60
2018-12-22T23:44:10.115Z,4.60
2018-12-22T23:46:40.922Z,4.60
2018-12-22T23:49:08.875Z,4.20
2018-12-22T23:51:36.438Z,4.40
2018-12-22T23:54:03.047Z,4.40
2018-12-22T23:56:31.690Z,4.30
2018-12-22T23:58:59.111Z,4.40
